Aérodrome :
LOGIN :

S'inscrire | Disclaimer

   EN    FR    IT 

 










Légende :    VFR   VFR Marginal   IFR   IFR Intensif   IFR Très Intensif
Visi : 
Plafond : 
>= 8 km
>= 3000ft
5 à 8 km
1000 à 3000 ft
1500m à 5 km
500 à 1000 ft
800 à 1500m
200 à 500 ft
< 800m
< 200 ft
Symboles :   Orages  Brouillard  Fortes neiges  Fortes précipitations  Vent > 20 kt
SIGMETs :   Divers  Orages  Givrage  Turbulence  Onde Orograph.  Cendres Volcan.







- Altitude de l'aérodrome : 33 ft
- Code IATA : MHZ


EGUN - RAF Mildenhall

DERNIER METAR :
  • 161516Z AUTO 26015G25KT 9999 SCT045 06/01 A2931 RMK AO2 SLP929 $

METARs EXPIRÉS :
  • 161456Z AUTO 26016G26KT 9999 BKN044 OVC050 06/01 A2931 RMK AO2 PK WND 27034/06 SLP929 T00630008 55002 $
  • 161446Z AUTO 25019G24KT 9999 BKN042 BKN050 07/01 A2930 RMK AO2 SLP925 $
  • 161356Z AUTO 27020G28KT 9999 FEW042 07/01 A2930 RMK AO2 PK WND 26032/47 SLP925 T00670010 $
  • 161311Z AUTO 27020G26KT 9999 SCT037 07/02 A2931 RMK AO2 SLP929 $
  • 161256Z AUTO 26019G27KT 9999 BKN038 06/03 A2931 RMK AO2 PK WND 27032/14 SLP929 T00640025 $
  • 161251Z AUTO 26017G27KT 9999 BKN036 06/02 A2932 RMK AO2 SLP932 $

TAF TAF EGUN
Valide du 16 à 12h jusqu'au 17 à 18h UTC


161207Z 1612/1718 26015G25KT 9999 SCT020 QNH2920INS
TEMPO 1617/1622 27025G35KT 6000 -SHRA BKN020 530002 550202
BECMG 1622/1623 25020G30KT 9999 BKN020 620209 QNH2935INS
TEMPO 1703/1710 27025G35KT 530002 550202
BECMG 1712/1713 28020G30KT 9999 BKN025 620259 QNH2960INS TX08/1614Z TN02/1703Z
Pas de NOTAMs connus pour ce terrain.
2 SIGMETs publiés pour la FIR London (EGTT) :
 
Turbulence forte
EGTT SIGMET 04 VALID 161500/161900 EGRR
EGTT LONDON FIR SEV TURB FCST WI N5040 E00128 - N5000 W00015 - N4850 W00800 - N5100 W00800 - N5220 W00530 - N5500 W00530 - N5500 W00216 - N5225 W00329 - N5038 W00249 - N5040 E00128 SFC/FL060 STNR NC=
Turbulence forte
EGTT SIGMET 03 VALID 161100/161500 EGRR
EGTT LONDON FIR SEV TURB FCST WI N5000 W00015 - N4850 W00800 - N5100 W00800 - N5220 W00530 - N5500 W00530 - N5500 W00240 - N5041 W00323 - N5100 E00128 - N5040 E00128 - N5000 W00015 SFC/FL060 STNR NC=



MET'MAP, la Météo Aéronautique d'un coup d'oeil ! - Copyright ORBIFLY Décembre 2007 - Disclaimer

ORBIFLY MET'MAP TEAM :

Programmation & Développement : Alexandra Zaïnal
Conception & Développement : Baudouin d'Aumeries
Co-Programmation & Développement : Marc-Olivier Méhu
Soutien technique & logistique : Manuel Goepfert

Contact : metmap@orbifly.com




SOURCES & CREDITS :

   NOAA